createdAt,value
2017-10-13T14:39:38.070Z,968.11
2017-10-13T14:40:38.101Z,968.1
2017-10-13T14:41:38.132Z,968.06
2017-10-13T14:42:38.165Z,968.12
2017-10-13T14:43:38.311Z,968.13
2017-10-13T14:44:38.235Z,968.23
2017-10-13T14:45:38.266Z,968.31
2017-10-13T14:46:38.307Z,968.32
2017-10-13T14:47:38.340Z,968.07
2017-10-13T14:48:38.492Z,967.71
2017-10-13T14:49:39.077Z,967.26
2017-10-13T14:50:38.807Z,967.18
2017-10-13T14:51:38.990Z,967.11
2017-10-13T14:52:39.097Z,967.09
2017-10-13T14:53:38.542Z,967.13
2017-10-13T14:54:38.576Z,967.11
2017-10-13T14:55:38.616Z,967.05
2017-10-13T14:56:38.648Z,967.04
2017-10-13T14:57:38.678Z,966.99
2017-10-13T14:58:38.713Z,967.02
2017-10-13T14:59:38.746Z,967
2017-10-13T15:00:38.776Z,967.04
2017-10-13T15:01:38.815Z,967.04
2017-10-13T15:02:38.866Z,967.04
2017-10-13T15:03:38.876Z,967.06
2017-10-13T15:04:38.906Z,967.05
2017-10-13T15:05:38.953Z,967.01
2017-10-13T15:06:38.977Z,967.03
2017-10-13T15:07:39.004Z,967.05
2017-10-13T15:08:39.034Z,967.02
2017-10-13T15:09:39.067Z,967.06
2017-10-13T15:10:39.097Z,967.05
2017-10-13T15:11:39.131Z,967.06
2017-10-13T15:12:39.158Z,967.06
2017-10-13T15:13:39.195Z,967.11
2017-10-13T15:14:39.219Z,967.09
2017-10-13T15:15:39.248Z,967.08
2017-10-13T15:16:39.288Z,967.09
2017-10-13T15:17:39.308Z,967.08
2017-10-13T15:18:39.339Z,967.17
2017-10-13T15:19:39.367Z,967.14
2017-10-13T15:20:39.399Z,967.13
2017-10-13T15:21:39.426Z,967.13
2017-10-13T15:22:39.456Z,967.14
2017-10-13T15:23:39.489Z,967.1
2017-10-13T15:24:39.511Z,967.13
2017-10-13T15:25:39.550Z,967.12
2017-10-13T15:26:39.581Z,967.11
2017-10-13T15:27:39.601Z,967.16
2017-10-13T15:28:39.627Z,967.21
2017-10-13T15:29:39.661Z,967.16
2017-10-13T15:30:39.685Z,967.17
2017-10-13T15:31:39.712Z,967.18
2017-10-13T15:32:39.743Z,967.19
2017-10-13T15:33:39.770Z,967.17
2017-10-13T15:34:39.803Z,967.17
2017-10-13T15:35:39.827Z,967.15
2017-10-13T15:36:39.857Z,967.14
2017-10-13T15:37:39.882Z,967.19
2017-10-13T15:38:39.910Z,967.15
2017-10-13T15:39:39.939Z,967.13
2017-10-13T15:40:39.979Z,967.18
2017-10-13T15:41:39.999Z,967.18
2017-10-13T15:42:40.019Z,967.17
2017-10-13T15:43:40.053Z,967.13
2017-10-13T15:44:40.079Z,967.18
2017-10-13T15:45:40.104Z,967.17
2017-10-13T15:46:40.132Z,967.18
2017-10-13T15:47:40.160Z,967.17
2017-10-13T15:48:40.188Z,967.18
2017-10-13T15:49:40.219Z,967.2
2017-10-13T15:50:40.242Z,967.21
2017-10-13T15:51:40.271Z,967.18
2017-10-13T15:52:40.295Z,967.2
2017-10-13T15:53:40.321Z,967.21
2017-10-13T15:54:40.353Z,967.22
2017-10-13T15:55:40.377Z,967.2
2017-10-13T15:56:40.405Z,967.24
2017-10-13T15:57:40.432Z,967.23
2017-10-13T15:58:40.470Z,967.23
2017-10-13T15:59:40.490Z,967.22
2017-10-13T16:00:40.515Z,967.24
2017-10-13T16:01:40.545Z,967.23
2017-10-13T16:02:40.568Z,967.26
2017-10-13T16:03:40.592Z,967.24
2017-10-13T16:04:40.620Z,967.26
2017-10-13T16:05:40.648Z,967.22
2017-10-13T16:06:40.673Z,967.27
2017-10-13T16:07:40.700Z,967.28
2017-10-13T16:08:40.728Z,967.28
2017-10-13T16:09:40.754Z,967.28
2017-10-13T16:10:40.779Z,967.29
2017-10-13T16:11:40.806Z,967.32
2017-10-13T16:12:40.832Z,967.29
2017-10-13T16:13:40.860Z,967.27
2017-10-13T16:14:40.887Z,967.27
2017-10-13T16:15:40.912Z,967.24
2017-10-13T16:16:40.940Z,967.2
2017-10-13T16:17:40.968Z,967.25
2017-10-13T16:18:41.006Z,967.26
2017-10-13T16:19:41.019Z,967.27
2017-10-13T16:20:41.047Z,967.29
2017-10-13T16:21:41.071Z,967.31
2017-10-13T16:22:41.095Z,967.35
2017-10-13T16:23:41.122Z,967.3
2017-10-13T16:24:41.148Z,967.32
2017-10-13T16:25:41.172Z,967.32
2017-10-13T16:26:41.204Z,967.36
2017-10-13T16:27:41.229Z,967.33
2017-10-13T16:28:41.251Z,967.35
2017-10-13T16:29:41.281Z,967.4
2017-10-13T16:30:41.301Z,967.38
2017-10-13T16:31:41.377Z,967.41
2017-10-13T16:32:41.357Z,967.38
2017-10-13T16:33:41.377Z,967.41
2017-10-13T16:34:41.409Z,967.38
2017-10-13T16:35:41.428Z,967.43
2017-10-13T16:36:41.454Z,967.44
2017-10-13T16:37:41.479Z,967.42
2017-10-13T16:38:41.506Z,967.4
2017-10-13T16:39:41.528Z,967.42
2017-10-13T16:40:41.561Z,967.41
2017-10-13T16:41:41.580Z,967.41
2017-10-13T16:42:41.606Z,967.4
2017-10-13T16:43:41.634Z,967.38
2017-10-13T16:44:41.654Z,967.37
2017-10-13T16:45:41.682Z,967.39
2017-10-13T16:46:41.705Z,967.38
2017-10-13T16:47:41.731Z,967.38
2017-10-13T16:48:41.766Z,967.4
2017-10-13T16:49:41.778Z,967.39
2017-10-13T16:50:41.807Z,967.37
2017-10-13T16:51:41.830Z,967.4
2017-10-13T16:52:41.860Z,967.38
2017-10-13T16:53:41.877Z,967.4
2017-10-13T16:54:41.910Z,967.38
2017-10-13T16:55:41.925Z,967.44
2017-10-13T16:56:41.950Z,967.37
2017-10-13T16:57:41.979Z,967.39
2017-10-13T16:58:41.998Z,967.4
2017-10-13T16:59:42.022Z,967.4
2017-10-13T17:00:42.045Z,967.38
2017-10-13T17:01:42.096Z,967.39
2017-10-13T17:02:42.094Z,967.37
2017-10-13T17:03:42.120Z,967.38
2017-10-13T17:04:42.144Z,967.39
2017-10-13T17:05:42.175Z,967.4
2017-10-13T17:06:42.194Z,967.42
2017-10-13T17:07:42.219Z,967.41
2017-10-13T17:08:42.240Z,967.42
2017-10-13T17:09:42.265Z,967.47
2017-10-13T17:10:42.296Z,967.46
2017-10-13T17:11:42.315Z,967.44
2017-10-13T17:12:42.338Z,967.5
2017-10-13T17:13:42.361Z,967.46
2017-10-13T17:14:42.385Z,967.48
2017-10-13T17:15:42.409Z,967.48
2017-10-13T17:16:42.435Z,967.49
2017-10-13T17:17:42.463Z,967.47
2017-10-13T17:18:42.481Z,967.55
2017-10-13T17:19:42.506Z,967.56
2017-10-13T17:20:42.529Z,967.55
2017-10-13T17:21:42.554Z,967.59
2017-10-13T17:22:42.579Z,967.56
2017-10-13T17:23:42.601Z,967.59
2017-10-13T17:24:42.630Z,967.61
2017-10-13T17:25:42.650Z,967.61
2017-10-13T17:26:42.674Z,967.62
2017-10-13T17:27:42.700Z,967.63
2017-10-13T17:28:42.776Z,967.64
2017-10-13T17:29:42.746Z,967.66
2017-10-13T17:30:42.771Z,967.65
2017-10-13T17:31:42.793Z,967.67
2017-10-13T17:32:42.825Z,967.74
2017-10-13T17:33:42.843Z,967.73
2017-10-13T17:34:42.866Z,967.73
2017-10-13T17:35:42.890Z,967.73
2017-10-13T17:36:42.920Z,967.72
2017-10-13T17:37:42.944Z,967.76
2017-10-13T17:38:42.962Z,967.74
2017-10-13T17:39:42.985Z,967.75
2017-10-13T17:40:43.033Z,967.72
2017-10-13T17:41:43.032Z,967.77
2017-10-13T17:42:43.058Z,967.79
2017-10-13T17:43:43.081Z,967.82
2017-10-13T17:44:43.104Z,967.83
2017-10-13T17:45:43.128Z,967.83
2017-10-13T17:46:43.152Z,967.84
2017-10-13T17:47:43.177Z,967.85
2017-10-13T17:48:43.200Z,967.81
2017-10-13T17:49:43.230Z,967.81
2017-10-13T17:50:43.248Z,967.81
2017-10-13T17:51:43.272Z,967.82
2017-10-13T17:52:43.294Z,967.83
2017-10-13T17:53:43.319Z,967.86
2017-10-13T17:54:43.344Z,967.8
2017-10-13T17:55:43.368Z,967.82
2017-10-13T17:56:43.391Z,967.84
2017-10-13T17:57:43.414Z,967.85
2017-10-13T17:58:43.439Z,967.85
2017-10-13T17:59:43.461Z,967.83
2017-10-13T18:00:43.490Z,967.84
2017-10-13T18:01:43.510Z,967.86
2017-10-13T18:02:43.535Z,967.89
2017-10-13T18:03:43.556Z,967.88
2017-10-13T18:04:43.579Z,967.87
2017-10-13T18:05:43.605Z,967.88
2017-10-13T18:06:43.628Z,967.87
2017-10-13T18:07:43.654Z,967.9
2017-10-13T18:08:43.675Z,967.84
2017-10-13T18:09:43.699Z,967.85
2017-10-13T18:10:43.723Z,967.82
2017-10-13T18:11:43.749Z,967.84
2017-10-13T18:12:43.770Z,967.85
2017-10-13T18:13:43.793Z,967.86
2017-10-13T18:14:43.818Z,967.88
2017-10-13T18:15:43.850Z,967.89
2017-10-13T18:16:43.864Z,967.87
2017-10-13T18:17:43.890Z,967.86
2017-10-13T18:18:43.961Z,967.86
2017-10-13T18:19:43.936Z,967.86
2017-10-13T18:20:43.959Z,967.88
2017-10-13T18:21:43.984Z,967.84
2017-10-13T18:22:44.006Z,967.9
2017-10-13T18:23:44.029Z,967.88
2017-10-13T18:24:44.055Z,967.84
2017-10-13T18:25:44.074Z,967.85
2017-10-13T18:26:44.099Z,967.87
2017-10-13T18:27:44.126Z,967.88
2017-10-13T18:28:44.188Z,967.87
2017-10-13T18:29:44.172Z,967.86
2017-10-13T18:30:44.192Z,967.85
2017-10-13T18:31:44.214Z,967.89
2017-10-13T18:32:44.235Z,967.87
2017-10-13T18:33:44.267Z,967.88
2017-10-13T18:34:44.288Z,967.91
2017-10-13T18:35:44.307Z,967.9
2017-10-13T18:36:44.329Z,967.91
2017-10-13T18:37:44.408Z,967.91
2017-10-13T18:38:44.548Z,967.93
2017-10-13T18:39:44.400Z,967.99
2017-10-13T18:40:44.427Z,967.97
2017-10-13T18:41:44.448Z,967.98
2017-10-13T18:42:44.472Z,968
2017-10-13T18:43:44.488Z,968.02
2017-10-13T18:44:44.514Z,968.02
2017-10-13T18:45:44.536Z,968.07
2017-10-13T18:46:44.562Z,968.08
2017-10-13T18:47:44.586Z,968.05
2017-10-13T18:48:44.604Z,968.07
2017-10-13T18:49:44.626Z,968.07
2017-10-13T18:50:44.650Z,968.07
2017-10-13T18:51:44.675Z,968.08
2017-10-13T18:52:44.696Z,968.08
2017-10-13T18:53:44.719Z,968.07
2017-10-13T18:54:44.741Z,968.08
2017-10-13T18:55:44.766Z,968.04
2017-10-13T18:56:44.791Z,968.09
2017-10-13T18:57:44.811Z,968.11
2017-10-13T18:58:44.834Z,968.13
2017-10-13T18:59:44.857Z,968.13
2017-10-13T19:00:44.883Z,968.1
2017-10-13T19:01:44.900Z,968.09
2017-10-13T19:02:44.923Z,968.14
2017-10-13T19:03:44.949Z,968.12
2017-10-13T19:04:44.971Z,968.13
2017-10-13T19:05:44.993Z,968.08
2017-10-13T19:06:45.019Z,968.12
2017-10-13T19:07:45.060Z,968.12
2017-10-13T19:08:45.062Z,968.12
2017-10-13T19:09:45.084Z,968.11
2017-10-13T19:10:45.107Z,968.13
2017-10-13T19:11:45.130Z,968.06
2017-10-13T19:12:45.153Z,968.11
2017-10-13T19:13:45.193Z,968.07
2017-10-13T19:14:45.197Z,968.02
2017-10-13T19:15:45.222Z,968.04
2017-10-13T19:16:45.242Z,968.04
2017-10-13T19:17:45.266Z,968.05
2017-10-13T19:18:45.288Z,968.04
2017-10-13T19:19:45.313Z,968.05
2017-10-13T19:20:45.333Z,968.04
2017-10-13T19:21:45.356Z,968.02
2017-10-13T19:22:45.378Z,968.05
2017-10-13T19:23:45.400Z,968.05
2017-10-13T19:24:45.430Z,968.09
2017-10-13T19:25:45.448Z,968.08
2017-10-13T19:26:45.474Z,968.08
2017-10-13T19:27:45.496Z,968.12
2017-10-13T19:28:45.564Z,968.12
2017-10-13T19:29:45.539Z,968.17
2017-10-13T19:30:45.561Z,968.16
2017-10-13T19:31:45.587Z,968.18
2017-10-13T19:32:45.605Z,968.19
2017-10-13T19:33:45.630Z,968.23
2017-10-13T19:34:45.651Z,968.21
2017-10-13T19:35:45.673Z,968.22
2017-10-13T19:36:45.699Z,968.2
2017-10-13T19:37:45.734Z,968.19
2017-10-13T19:38:45.748Z,968.27
2017-10-13T19:39:45.763Z,968.26
2017-10-13T19:40:45.785Z,968.25
2017-10-13T19:41:46.027Z,968.29
2017-10-13T19:42:45.831Z,968.26
2017-10-13T19:43:45.855Z,968.32
2017-10-13T19:44:45.877Z,968.3
2017-10-13T19:45:45.902Z,968.26
2017-10-13T19:46:45.985Z,968.28
2017-10-13T19:47:45.966Z,968.28
2017-10-13T19:48:45.987Z,968.31
2017-10-13T19:49:45.990Z,968.29
2017-10-13T19:50:46.013Z,968.33
2017-10-13T19:51:46.049Z,968.31
2017-10-13T19:52:46.060Z,968.32
2017-10-13T19:53:46.080Z,968.29
2017-10-13T19:54:46.107Z,968.35
2017-10-13T19:55:46.126Z,968.29
2017-10-13T19:56:46.204Z,968.29
2017-10-13T19:57:46.170Z,968.27
2017-10-13T19:58:46.193Z,968.25
2017-10-13T19:59:46.216Z,968.26
2017-10-13T20:00:46.242Z,968.23
2017-10-13T20:01:46.260Z,968.22
2017-10-13T20:02:46.295Z,968.23
2017-10-13T20:03:46.307Z,968.21
2017-10-13T20:04:46.328Z,968.24
2017-10-13T20:05:46.351Z,968.19
2017-10-13T20:06:46.376Z,968.18
2017-10-13T20:07:46.419Z,968.21
2017-10-13T20:08:46.417Z,968.17
2017-10-13T20:09:46.443Z,968.17
2017-10-13T20:10:46.463Z,968.21
2017-10-13T20:11:46.536Z,968.19
2017-10-13T20:12:46.508Z,968.16
2017-10-13T20:13:46.529Z,968.17
2017-10-13T20:14:46.554Z,968.17
2017-10-13T20:15:46.588Z,968.1
2017-10-13T20:16:46.610Z,968.12
2017-10-13T20:17:46.622Z,968.1
2017-10-13T20:18:46.656Z,968.1
2017-10-13T20:19:46.668Z,968.13
2017-10-13T20:20:46.688Z,968.12
2017-10-13T20:21:46.707Z,968.11
2017-10-13T20:22:46.730Z,968.14
2017-10-13T20:23:46.751Z,968.16
2017-10-13T20:24:46.776Z,968.14
2017-10-13T20:25:46.811Z,968.19
2017-10-13T20:26:46.870Z,968.16
2017-10-13T20:27:46.846Z,968.14
2017-10-13T20:28:46.869Z,968.14
2017-10-13T20:29:46.891Z,968.15
2017-10-13T20:30:46.919Z,968.13
2017-10-13T20:31:46.933Z,968.11
2017-10-13T20:32:46.954Z,968.15
2017-10-13T20:33:46.979Z,968.14
2017-10-13T20:34:47.012Z,968.18
2017-10-13T20:35:47.025Z,968.19
2017-10-13T20:36:47.045Z,968.19
2017-10-13T20:37:47.062Z,968.21
2017-10-13T20:38:47.096Z,968.18
2017-10-13T20:39:47.108Z,968.16
2017-10-13T20:40:47.131Z,968.17
2017-10-13T20:41:47.154Z,968.12
2017-10-13T20:42:47.185Z,968.15
2017-10-13T20:43:47.197Z,968.16
2017-10-13T20:44:47.220Z,968.19
2017-10-13T20:45:47.243Z,968.14
2017-10-13T20:46:47.268Z,968.12
2017-10-13T20:47:47.287Z,968.17
2017-10-13T20:48:47.325Z,968.16
2017-10-13T20:49:47.331Z,968.17
2017-10-13T20:50:47.354Z,968.18
2017-10-13T20:51:47.392Z,968.17
2017-10-13T20:52:47.398Z,968.2
2017-10-13T20:53:47.433Z,968.19
2017-10-13T20:54:47.448Z,968.23
2017-10-13T20:55:47.468Z,968.22
2017-10-13T20:56:47.487Z,968.23
2017-10-13T20:57:47.513Z,968.2
2017-10-13T20:58:47.581Z,968.25
2017-10-13T20:59:47.555Z,968.23
2017-10-13T21:00:47.578Z,968.23
2017-10-13T21:01:47.599Z,968.22
2017-10-13T21:02:47.628Z,968.22
2017-10-13T21:03:47.644Z,968.23
2017-10-13T21:04:47.667Z,968.2
2017-10-13T21:05:47.691Z,968.21
2017-10-13T21:06:47.718Z,968.2
2017-10-13T21:07:47.733Z,968.24
2017-10-13T21:08:47.759Z,968.24
2017-10-13T21:09:47.779Z,968.22
2017-10-13T21:10:47.801Z,968.27
2017-10-13T21:11:47.823Z,968.27
2017-10-13T21:12:47.854Z,968.23
2017-10-13T21:13:47.893Z,968.21
2017-10-13T21:14:47.913Z,968.26
2017-10-13T21:15:47.916Z,968.23
2017-10-13T21:16:47.970Z,968.26
2017-10-13T21:17:48.005Z,968.24
2017-10-13T21:18:47.980Z,968.22
2017-10-13T21:19:48.003Z,968.17
2017-10-13T21:20:48.026Z,968.18
2017-10-13T21:21:48.050Z,968.15
2017-10-13T21:22:48.069Z,968.16
2017-10-13T21:23:48.093Z,968.14
2017-10-13T21:24:48.114Z,968.16
2017-10-13T21:25:48.135Z,968.13
2017-10-13T21:26:48.158Z,968.16
2017-10-13T21:27:48.181Z,968.16
2017-10-13T21:28:48.201Z,968.18
2017-10-13T21:29:48.223Z,968.2
2017-10-13T21:30:48.247Z,968.2
2017-10-13T21:31:48.271Z,968.25
2017-10-13T21:32:48.346Z,968.25
2017-10-13T21:33:48.317Z,968.2
2017-10-13T21:34:48.333Z,968.17
2017-10-13T21:35:48.355Z,968.21
2017-10-13T21:36:48.379Z,968.21
2017-10-13T21:37:48.403Z,968.2
2017-10-13T21:38:48.422Z,968.21
2017-10-13T21:39:48.444Z,968.18
2017-10-13T21:40:48.465Z,968.21
2017-10-13T21:41:48.488Z,968.18
2017-10-13T21:42:48.514Z,968.16
2017-10-13T21:43:48.532Z,968.18
2017-10-13T21:44:48.556Z,968.2
2017-10-13T21:45:48.575Z,968.17
2017-10-13T21:46:48.608Z,968.21
2017-10-13T21:47:48.621Z,968.15
2017-10-13T21:48:48.642Z,968.15
2017-10-13T21:49:48.667Z,968.16
2017-10-13T21:50:48.685Z,968.17
2017-10-13T21:51:48.756Z,968.16
2017-10-13T21:52:48.728Z,968.17
2017-10-13T21:53:48.747Z,968.17
2017-10-13T21:54:48.775Z,968.17
2017-10-13T21:55:48.795Z,968.18
2017-10-13T21:56:48.815Z,968.19
2017-10-13T21:57:48.837Z,968.19
2017-10-13T21:58:48.858Z,968.21
2017-10-13T21:59:48.880Z,968.2
2017-10-13T22:00:48.909Z,968.19
2017-10-13T22:01:48.926Z,968.21
2017-10-13T22:02:48.944Z,968.21
2017-10-13T22:03:48.968Z,968.21
2017-10-13T22:04:48.992Z,968.15
2017-10-13T22:05:49.010Z,968.17
2017-10-13T22:06:49.086Z,968.18
2017-10-13T22:07:49.056Z,968.19
2017-10-13T22:08:49.079Z,968.19
2017-10-13T22:09:49.098Z,968.2
2017-10-13T22:10:49.120Z,968.25
2017-10-13T22:11:49.143Z,968.21
2017-10-13T22:12:49.161Z,968.24
2017-10-13T22:13:49.182Z,968.22
2017-10-13T22:14:49.204Z,968.21
2017-10-13T22:15:49.226Z,968.17
2017-10-13T22:16:49.250Z,968.16
2017-10-13T22:17:49.271Z,968.17
2017-10-13T22:18:49.292Z,968.13
2017-10-13T22:19:49.313Z,968.13
2017-10-13T22:20:49.335Z,968.09
2017-10-13T22:21:49.358Z,968.14
2017-10-13T22:22:49.377Z,968.13
2017-10-13T22:23:49.399Z,968.1
2017-10-13T22:24:49.422Z,968.1
2017-10-13T22:25:49.450Z,968.12
2017-10-13T22:26:49.464Z,968.14
2017-10-13T22:27:49.487Z,968.13
2017-10-13T22:28:49.521Z,968.11
2017-10-13T22:29:49.528Z,968.1
2017-10-13T22:30:49.550Z,968.1
2017-10-13T22:31:49.576Z,968.11
2017-10-13T22:32:49.606Z,968.09
2017-10-13T22:33:49.626Z,968.08
2017-10-13T22:34:49.650Z,968.09
2017-10-13T22:35:49.672Z,968.1
2017-10-13T22:36:49.682Z,968.12
2017-10-13T22:37:49.701Z,968.16
2017-10-13T22:38:49.774Z,968.17
2017-10-13T22:39:49.746Z,968.16
2017-10-13T22:40:49.771Z,968.13
2017-10-13T22:41:49.789Z,968.16
2017-10-13T22:42:49.812Z,968.14
2017-10-13T22:43:49.836Z,968.19
2017-10-13T22:44:49.854Z,968.14
2017-10-13T22:45:49.896Z,968.19
2017-10-13T22:46:49.902Z,968.16
2017-10-13T22:47:49.920Z,968.2
2017-10-13T22:48:49.947Z,968.21
2017-10-13T22:49:49.962Z,968.23
2017-10-13T22:50:49.982Z,968.22
2017-10-13T22:51:50.004Z,968.22
2017-10-13T22:52:50.033Z,968.22
2017-10-13T22:53:50.097Z,968.24
2017-10-13T22:54:50.068Z,968.23
2017-10-13T22:55:50.097Z,968.24
2017-10-13T22:56:50.110Z,968.2
2017-10-13T22:57:50.137Z,968.21
2017-10-13T22:58:50.154Z,968.25
2017-10-13T22:59:50.175Z,968.23
2017-10-13T23:00:50.197Z,968.24
2017-10-13T23:01:50.216Z,968.24
2017-10-13T23:02:50.244Z,968.26
2017-10-13T23:03:50.259Z,968.21
2017-10-13T23:04:50.281Z,968.26
2017-10-13T23:05:50.302Z,968.26
2017-10-13T23:06:50.322Z,968.28
2017-10-13T23:07:50.346Z,968.26
2017-10-13T23:08:50.416Z,968.25
2017-10-13T23:09:50.388Z,968.29
2017-10-13T23:10:50.410Z,968.26
2017-10-13T23:11:50.445Z,968.24
2017-10-13T23:12:50.452Z,968.23
2017-10-13T23:13:50.472Z,968.26
2017-10-13T23:14:50.493Z,968.22
2017-10-13T23:15:50.514Z,968.23
2017-10-13T23:16:50.534Z,968.21
2017-10-13T23:17:50.557Z,968.23
2017-10-13T23:18:50.576Z,968.22
2017-10-13T23:19:50.599Z,968.22
2017-10-13T23:20:50.619Z,968.23
2017-10-13T23:21:50.647Z,968.17
2017-10-13T23:22:50.661Z,968.11
2017-10-13T23:23:50.733Z,968.09
2017-10-13T23:24:50.705Z,968.08
2017-10-13T23:25:50.725Z,968.07
2017-10-13T23:26:50.745Z,968.07
2017-10-13T23:27:50.771Z,968.03
2017-10-13T23:28:50.791Z,968
2017-10-13T23:29:50.811Z,968
2017-10-13T23:30:50.830Z,968.03
2017-10-13T23:31:50.850Z,967.99
2017-10-13T23:32:50.870Z,968
2017-10-13T23:33:50.895Z,968.02
2017-10-13T23:34:50.916Z,968
2017-10-13T23:35:50.934Z,968
2017-10-13T23:36:50.960Z,968.02
2017-10-13T23:37:50.976Z,968
2017-10-13T23:38:51.000Z,968.02
2017-10-13T23:39:51.025Z,968.06
2017-10-13T23:40:51.089Z,968.03
2017-10-13T23:41:51.059Z,968.06
2017-10-13T23:42:51.083Z,968.09
2017-10-13T23:43:51.102Z,968.09
2017-10-13T23:44:51.126Z,968.13
2017-10-13T23:45:51.142Z,968.13
2017-10-13T23:46:51.166Z,968.19
2017-10-13T23:47:51.190Z,968.19
2017-10-13T23:48:51.205Z,968.21
2017-10-13T23:49:51.233Z,968.28
2017-10-13T23:50:51.246Z,968.27
2017-10-13T23:51:51.270Z,968.33
2017-10-13T23:52:51.291Z,968.34
2017-10-13T23:53:51.311Z,968.34
2017-10-13T23:54:51.331Z,968.3
2017-10-13T23:55:51.352Z,968.31
2017-10-13T23:56:51.374Z,968.32
2017-10-13T23:57:51.393Z,968.29
2017-10-13T23:58:51.464Z,968.3
2017-10-13T23:59:51.439Z,968.33
